Main page
METAR-TAF:

METAR-TAF

Airports :

RAF Lossiemouth

Lossiemouth, Scotland

latitude: 57-43N, longitude: 003-19W, elevation: 13 m

Current weather observation

The report was made 1 hour and 7 minutes ago, at 09:50 UTC
Wind 7 kt from the East/Northeast
Temperature 11°C
Humidity 76%
Pressure 989 hPa
Visibility 10 km or more
Few clouds at a height of 2200 ft
Broken clouds at a height of 7000 ft

METAR: EGQS 090950Z 07007KT 9999 FEW022 BKN070 11/07 Q0989 RMK BLU

Time: 11:57 (10:57 UTC)

Forecast

The report was made 3 hours and 25 minutes ago, at 07:32 UTC
Forecast valid from 09 at 09 UTC to 10 at 03 UTC
Wind 8 kt from the East/Northeast
Visibility 10 km or more
Few clouds at a height of 4500 ft
Probability 30% :
Temporary
from 09 at 11 UTC to 09 at 19 UTC
Visibility: 5000 m
Broken clouds at a height of 2400 ft, Cumulonimbus.
rain showers

TAF: EGQS 090732Z 0909/1003 07008KT 9999 FEW045 PROB30 TEMPO 0911/0919 5000 SHRA BKN024CB

Weather observations and forecasts of more than 4000 airports (METAR and TAF reports).

The available stations are represented by yellow and red dots on the map.

Hover mouse over dot to see the name of the station.

Then click to see weather observations and forecasts.

To change the map : click on the green buttons with a black cross to zoom in, on the green button with a dash to zoom out, or on the green arrows for adjacent maps.


METAR-TAF: